Yoshkar-Ola, Russia
Current Conditions -  °F | °C
As of 5:00 AM on Monday 26 Jan 2015 (Local Time) from UWKS Reporting Station
Clear Clear  
Wind Chill: -13°   Ceiling: Unl
Heat Index:   Visibility: 6mi
Dew Point: -6°   Wind: 11mph
Humidity: 66%   Direction: 190°S
Pressure: 30.59"   Gusts: NA
Location:  56.64°N, 47.87°E
Report Text: UWKS 260200Z 19005MPS CAVOK M16/M21 Q1036 NOSIG RMK QFE76324920350
Loading
Personal Weather Stations






























Interactive Weather Map New forecast layout! Learn more

10-Day Weather Forecast

Advertisements
Track Severe Weather on mobile